sensor_id;sensor_type;location;lat;lon;timestamp;P1;durP1;ratioP1;P2;durP2;ratioP2
15202;SDS011;7702;51.046;5.184;2022-09-01T00:01:40;15.20;;;9.23;;
15202;SDS011;7702;51.046;5.184;2022-09-01T00:04:08;15.30;;;10.20;;
15202;SDS011;7702;51.046;5.184;2022-09-01T00:06:36;13.90;;;9.10;;
15202;SDS011;7702;51.046;5.184;2022-09-01T00:09:05;13.43;;;9.87;;
15202;SDS011;7702;51.046;5.184;2022-09-01T00:11:33;13.80;;;9.23;;
15202;SDS011;7702;51.046;5.184;2022-09-01T00:13:59;11.30;;;9.23;;
15202;SDS011;7702;51.046;5.184;2022-09-01T00:16:26;14.90;;;9.30;;
15202;SDS011;7702;51.046;5.184;2022-09-01T00:18:53;14.73;;;10.23;;
15202;SDS011;7702;51.046;5.184;2022-09-01T00:21:21;13.53;;;9.47;;
15202;SDS011;7702;51.046;5.184;2022-09-01T00:23:56;13.33;;;9.30;;
15202;SDS011;7702;51.046;5.184;2022-09-01T00:26:22;13.37;;;9.40;;
15202;SDS011;7702;51.046;5.184;2022-09-01T00:28:47;19.07;;;10.53;;
15202;SDS011;7702;51.046;5.184;2022-09-01T00:31:15;13.13;;;9.70;;
15202;SDS011;7702;51.046;5.184;2022-09-01T00:33:44;11.40;;;9.10;;
15202;SDS011;7702;51.046;5.184;2022-09-01T00:36:10;17.23;;;9.77;;
15202;SDS011;7702;51.046;5.184;2022-09-01T00:38:36;16.97;;;9.83;;
15202;SDS011;7702;51.046;5.184;2022-09-01T00:41:02;14.47;;;9.70;;
15202;SDS011;7702;51.046;5.184;2022-09-01T00:46:02;13.70;;;8.97;;
15202;SDS011;7702;51.046;5.184;2022-09-01T00:48:33;12.50;;;9.43;;
15202;SDS011;7702;51.046;5.184;2022-09-01T00:50:59;10.87;;;8.80;;
15202;SDS011;7702;51.046;5.184;2022-09-01T00:53:26;16.47;;;9.47;;
15202;SDS011;7702;51.046;5.184;2022-09-01T00:55:52;14.50;;;10.77;;
15202;SDS011;7702;51.046;5.184;2022-09-01T00:58:18;15.83;;;11.30;;
15202;SDS011;7702;51.046;5.184;2022-09-01T01:00:44;14.57;;;11.47;;
15202;SDS011;7702;51.046;5.184;2022-09-01T01:03:13;19.10;;;12.17;;
15202;SDS011;7702;51.046;5.184;2022-09-01T01:05:41;17.27;;;12.37;;
15202;SDS011;7702;51.046;5.184;2022-09-01T01:08:23;17.13;;;12.90;;
15202;SDS011;7702;51.046;5.184;2022-09-01T01:10:59;20.13;;;13.73;;
15202;SDS011;7702;51.046;5.184;2022-09-01T01:13:26;19.20;;;14.83;;
15202;SDS011;7702;51.046;5.184;2022-09-01T01:15:57;22.03;;;14.50;;
15202;SDS011;7702;51.046;5.184;2022-09-01T01:18:23;19.60;;;13.87;;
15202;SDS011;7702;51.046;5.184;2022-09-01T01:21:01;20.47;;;15.20;;
15202;SDS011;7702;51.046;5.184;2022-09-01T01:23:53;19.63;;;15.07;;
15202;SDS011;7702;51.046;5.184;2022-09-01T01:26:25;19.93;;;15.43;;
15202;SDS011;7702;51.046;5.184;2022-09-01T01:28:51;22.87;;;15.37;;
15202;SDS011;7702;51.046;5.184;2022-09-01T01:31:18;23.70;;;16.43;;
15202;SDS011;7702;51.046;5.184;2022-09-01T01:33:49;22.17;;;15.53;;
15202;SDS011;7702;51.046;5.184;2022-09-01T01:36:18;20.83;;;15.53;;
15202;SDS011;7702;51.046;5.184;2022-09-01T01:38:49;20.80;;;15.43;;
15202;SDS011;7702;51.046;5.184;2022-09-01T01:41:16;23.50;;;14.97;;
15202;SDS011;7702;51.046;5.184;2022-09-01T01:43:44;26.43;;;15.67;;
15202;SDS011;7702;51.046;5.184;2022-09-01T01:46:12;23.33;;;15.00;;
15202;SDS011;7702;51.046;5.184;2022-09-01T01:48:39;20.43;;;14.77;;
15202;SDS011;7702;51.046;5.184;2022-09-01T01:51:06;25.87;;;14.93;;
15202;SDS011;7702;51.046;5.184;2022-09-01T01:53:32;22.07;;;15.33;;
15202;SDS011;7702;51.046;5.184;2022-09-01T01:55:59;19.90;;;14.67;;
15202;SDS011;7702;51.046;5.184;2022-09-01T01:58:26;20.50;;;13.97;;
15202;SDS011;7702;51.046;5.184;2022-09-01T02:00:53;19.27;;;14.17;;
15202;SDS011;7702;51.046;5.184;2022-09-01T02:03:21;18.10;;;13.50;;
15202;SDS011;7702;51.046;5.184;2022-09-01T02:05:51;22.47;;;12.97;;
15202;SDS011;7702;51.046;5.184;2022-09-01T02:08:19;19.77;;;12.20;;
15202;SDS011;7702;51.046;5.184;2022-09-01T02:10:50;19.13;;;11.80;;
15202;SDS011;7702;51.046;5.184;2022-09-01T02:13:18;18.07;;;11.87;;
15202;SDS011;7702;51.046;5.184;2022-09-01T02:15:48;13.67;;;10.10;;
15202;SDS011;7702;51.046;5.184;2022-09-01T02:18:21;18.57;;;10.13;;
15202;SDS011;7702;51.046;5.184;2022-09-01T02:20:52;14.40;;;9.80;;
15202;SDS011;7702;51.046;5.184;2022-09-01T02:23:19;12.10;;;9.47;;
15202;SDS011;7702;51.046;5.184;2022-09-01T02:25:49;13.63;;;8.97;;
15202;SDS011;7702;51.046;5.184;2022-09-01T02:28:23;11.77;;;7.80;;
15202;SDS011;7702;51.046;5.184;2022-09-01T02:30:49;9.53;;;7.07;;
15202;SDS011;7702;51.046;5.184;2022-09-01T02:33:20;10.30;;;7.20;;
15202;SDS011;7702;51.046;5.184;2022-09-01T02:35:51;12.83;;;7.80;;
15202;SDS011;7702;51.046;5.184;2022-09-01T02:38:20;9.00;;;7.03;;
15202;SDS011;7702;51.046;5.184;2022-09-01T02:40:50;10.23;;;7.30;;
15202;SDS011;7702;51.046;5.184;2022-09-01T02:43:18;9.20;;;6.00;;
15202;SDS011;7702;51.046;5.184;2022-09-01T02:45:44;11.13;;;6.53;;
15202;SDS011;7702;51.046;5.184;2022-09-01T02:48:41;9.87;;;6.50;;
15202;SDS011;7702;51.046;5.184;2022-09-01T02:51:11;9.40;;;5.70;;
15202;SDS011;7702;51.046;5.184;2022-09-01T02:53:39;6.23;;;4.97;;
15202;SDS011;7702;51.046;5.184;2022-09-01T02:56:07;6.80;;;5.37;;
15202;SDS011;7702;51.046;5.184;2022-09-01T02:58:39;7.67;;;4.67;;
15202;SDS011;7702;51.046;5.184;2022-09-01T03:01:23;9.50;;;4.93;;
15202;SDS011;7702;51.046;5.184;2022-09-01T03:04:00;10.00;;;4.93;;
15202;SDS011;7702;51.046;5.184;2022-09-01T03:06:29;7.03;;;4.20;;
15202;SDS011;7702;51.046;5.184;2022-09-01T03:08:58;7.27;;;4.20;;
15202;SDS011;7702;51.046;5.184;2022-09-01T03:11:25;5.73;;;4.33;;
15202;SDS011;7702;51.046;5.184;2022-09-01T03:13:53;4.87;;;3.90;;
15202;SDS011;7702;51.046;5.184;2022-09-01T03:16:20;6.20;;;3.77;;
15202;SDS011;7702;51.046;5.184;2022-09-01T03:18:49;5.10;;;3.70;;
15202;SDS011;7702;51.046;5.184;2022-09-01T03:21:16;6.27;;;3.87;;
15202;SDS011;7702;51.046;5.184;2022-09-01T03:23:43;4.03;;;3.63;;
15202;SDS011;7702;51.046;5.184;2022-09-01T03:26:10;6.43;;;3.50;;
15202;SDS011;7702;51.046;5.184;2022-09-01T03:28:36;3.67;;;3.33;;
15202;SDS011;7702;51.046;5.184;2022-09-01T03:31:02;3.83;;;3.40;;
15202;SDS011;7702;51.046;5.184;2022-09-01T03:33:28;3.63;;;3.17;;
15202;SDS011;7702;51.046;5.184;2022-09-01T03:35:55;4.30;;;3.57;;
15202;SDS011;7702;51.046;5.184;2022-09-01T03:38:21;6.27;;;3.90;;
15202;SDS011;7702;51.046;5.184;2022-09-01T03:40:49;7.60;;;3.77;;
15202;SDS011;7702;51.046;5.184;2022-09-01T03:43:16;7.73;;;4.13;;
15202;SDS011;7702;51.046;5.184;2022-09-01T03:45:44;7.03;;;3.50;;
15202;SDS011;7702;51.046;5.184;2022-09-01T03:48:11;5.23;;;3.80;;
15202;SDS011;7702;51.046;5.184;2022-09-01T03:50:40;7.47;;;4.30;;
15202;SDS011;7702;51.046;5.184;2022-09-01T03:53:09;6.33;;;3.63;;
15202;SDS011;7702;51.046;5.184;2022-09-01T03:55:36;7.67;;;3.90;;
15202;SDS011;7702;51.046;5.184;2022-09-01T03:58:06;5.63;;;3.40;;
15202;SDS011;7702;51.046;5.184;2022-09-01T04:00:34;5.87;;;3.23;;
15202;SDS011;7702;51.046;5.184;2022-09-01T04:03:02;5.40;;;3.40;;
15202;SDS011;7702;51.046;5.184;2022-09-01T04:05:32;4.37;;;3.30;;
15202;SDS011;7702;51.046;5.184;2022-09-01T04:08:00;3.07;;;2.87;;
15202;SDS011;7702;51.046;5.184;2022-09-01T04:10:30;3.73;;;2.87;;
15202;SDS011;7702;51.046;5.184;2022-09-01T04:12:57;6.93;;;3.00;;
15202;SDS011;7702;51.046;5.184;2022-09-01T04:15:24;3.07;;;2.77;;
15202;SDS011;7702;51.046;5.184;2022-09-01T04:17:51;4.37;;;3.27;;
15202;SDS011;7702;51.046;5.184;2022-09-01T04:20:34;2.90;;;2.70;;
15202;SDS011;7702;51.046;5.184;2022-09-01T04:23:12;4.87;;;3.20;;
15202;SDS011;7702;51.046;5.184;2022-09-01T04:25:44;4.37;;;2.93;;
15202;SDS011;7702;51.046;5.184;2022-09-01T04:28:13;3.13;;;2.57;;
15202;SDS011;7702;51.046;5.184;2022-09-01T04:30:47;5.33;;;3.00;;
15202;SDS011;7702;51.046;5.184;2022-09-01T04:33:14;5.13;;;2.47;;
15202;SDS011;7702;51.046;5.184;2022-09-01T04:35:42;6.03;;;2.73;;
15202;SDS011;7702;51.046;5.184;2022-09-01T04:38:07;4.77;;;2.57;;
15202;SDS011;7702;51.046;5.184;2022-09-01T04:40:40;5.23;;;2.53;;
15202;SDS011;7702;51.046;5.184;2022-09-01T04:43:06;4.47;;;2.93;;
15202;SDS011;7702;51.046;5.184;2022-09-01T04:45:33;3.03;;;2.63;;
15202;SDS011;7702;51.046;5.184;2022-09-01T04:48:01;4.07;;;2.37;;
15202;SDS011;7702;51.046;5.184;2022-09-01T04:50:27;3.37;;;2.73;;
15202;SDS011;7702;51.046;5.184;2022-09-01T04:52:54;3.23;;;2.63;;
15202;SDS011;7702;51.046;5.184;2022-09-01T04:55:26;5.67;;;2.90;;
15202;SDS011;7702;51.046;5.184;2022-09-01T04:57:53;4.20;;;2.87;;
15202;SDS011;7702;51.046;5.184;2022-09-01T05:00:22;5.03;;;3.27;;
15202;SDS011;7702;51.046;5.184;2022-09-01T05:02:54;3.33;;;2.70;;
15202;SDS011;7702;51.046;5.184;2022-09-01T05:05:28;3.20;;;2.70;;
15202;SDS011;7702;51.046;5.184;2022-09-01T05:08:09;4.73;;;3.00;;
15202;SDS011;7702;51.046;5.184;2022-09-01T05:10:43;3.60;;;2.53;;
15202;SDS011;7702;51.046;5.184;2022-09-01T05:13:12;5.40;;;2.77;;
15202;SDS011;7702;51.046;5.184;2022-09-01T05:15:43;2.60;;;2.40;;
15202;SDS011;7702;51.046;5.184;2022-09-01T05:18:15;2.93;;;2.47;;
15202;SDS011;7702;51.046;5.184;2022-09-01T05:20:47;2.67;;;2.47;;
15202;SDS011;7702;51.046;5.184;2022-09-01T05:23:17;5.20;;;2.87;;
15202;SDS011;7702;51.046;5.184;2022-09-01T05:25:44;3.13;;;2.60;;
15202;SDS011;7702;51.046;5.184;2022-09-01T05:28:13;3.27;;;2.67;;
15202;SDS011;7702;51.046;5.184;2022-09-01T05:30:42;3.37;;;3.03;;
15202;SDS011;7702;51.046;5.184;2022-09-01T05:33:09;6.67;;;2.73;;
15202;SDS011;7702;51.046;5.184;2022-09-01T05:35:41;2.50;;;2.30;;
15202;SDS011;7702;51.046;5.184;2022-09-01T05:38:16;2.87;;;2.57;;
15202;SDS011;7702;51.046;5.184;2022-09-01T05:40:42;3.97;;;2.70;;
15202;SDS011;7702;51.046;5.184;2022-09-01T05:43:10;4.30;;;2.73;;
15202;SDS011;7702;51.046;5.184;2022-09-01T05:45:38;4.50;;;2.50;;
15202;SDS011;7702;51.046;5.184;2022-09-01T05:48:07;2.87;;;2.60;;
15202;SDS011;7702;51.046;5.184;2022-09-01T05:50:35;4.33;;;2.30;;
15202;SDS011;7702;51.046;5.184;2022-09-01T05:53:06;3.77;;;2.97;;
15202;SDS011;7702;51.046;5.184;2022-09-01T05:55:44;3.67;;;2.60;;
15202;SDS011;7702;51.046;5.184;2022-09-01T05:58:13;6.50;;;2.70;;
15202;SDS011;7702;51.046;5.184;2022-09-01T06:00:44;3.20;;;3.00;;
15202;SDS011;7702;51.046;5.184;2022-09-01T06:03:13;6.00;;;3.30;;
15202;SDS011;7702;51.046;5.184;2022-09-01T06:05:39;6.27;;;3.13;;
15202;SDS011;7702;51.046;5.184;2022-09-01T06:08:06;3.57;;;2.53;;
15202;SDS011;7702;51.046;5.184;2022-09-01T06:10:38;3.87;;;3.07;;
15202;SDS011;7702;51.046;5.184;2022-09-01T06:13:06;3.20;;;2.73;;
15202;SDS011;7702;51.046;5.184;2022-09-01T06:15:33;3.83;;;2.77;;
15202;SDS011;7702;51.046;5.184;2022-09-01T06:18:03;4.43;;;2.87;;
15202;SDS011;7702;51.046;5.184;2022-09-01T06:20:33;3.03;;;2.60;;
15202;SDS011;7702;51.046;5.184;2022-09-01T06:23:04;4.37;;;2.83;;
15202;SDS011;7702;51.046;5.184;2022-09-01T06:25:30;4.97;;;2.87;;
15202;SDS011;7702;51.046;5.184;2022-09-01T06:27:56;3.37;;;2.73;;
15202;SDS011;7702;51.046;5.184;2022-09-01T06:30:23;4.43;;;3.00;;
15202;SDS011;7702;51.046;5.184;2022-09-01T06:32:51;3.97;;;2.60;;
15202;SDS011;7702;51.046;5.184;2022-09-01T06:35:18;4.70;;;2.90;;
15202;SDS011;7702;51.046;5.184;2022-09-01T06:37:45;4.40;;;3.10;;
15202;SDS011;7702;51.046;5.184;2022-09-01T06:40:13;4.13;;;3.00;;
15202;SDS011;7702;51.046;5.184;2022-09-01T06:42:46;3.83;;;3.13;;
15202;SDS011;7702;51.046;5.184;2022-09-01T06:45:16;3.43;;;3.13;;
15202;SDS011;7702;51.046;5.184;2022-09-01T06:47:45;6.13;;;3.13;;
15202;SDS011;7702;51.046;5.184;2022-09-01T06:50:12;5.63;;;3.50;;
15202;SDS011;7702;51.046;5.184;2022-09-01T06:52:40;3.80;;;3.23;;
15202;SDS011;7702;51.046;5.184;2022-09-01T06:55:07;4.00;;;3.00;;
15202;SDS011;7702;51.046;5.184;2022-09-01T06:57:34;3.87;;;3.27;;
15202;SDS011;7702;51.046;5.184;2022-09-01T07:00:00;3.03;;;2.73;;
15202;SDS011;7702;51.046;5.184;2022-09-01T07:02:31;3.30;;;3.00;;
15202;SDS011;7702;51.046;5.184;2022-09-01T07:04:57;6.80;;;2.93;;
15202;SDS011;7702;51.046;5.184;2022-09-01T07:07:23;3.93;;;3.00;;
15202;SDS011;7702;51.046;5.184;2022-09-01T07:09:56;3.10;;;2.80;;
15202;SDS011;7702;51.046;5.184;2022-09-01T07:12:21;3.37;;;2.90;;
15202;SDS011;7702;51.046;5.184;2022-09-01T07:14:47;3.10;;;2.90;;
15202;SDS011;7702;51.046;5.184;2022-09-01T07:17:13;3.63;;;3.30;;
15202;SDS011;7702;51.046;5.184;2022-09-01T07:19:39;3.07;;;2.70;;
15202;SDS011;7702;51.046;5.184;2022-09-01T07:22:05;3.20;;;2.80;;
15202;SDS011;7702;51.046;5.184;2022-09-01T07:24:31;4.33;;;3.00;;
15202;SDS011;7702;51.046;5.184;2022-09-01T07:26:57;3.57;;;2.90;;
15202;SDS011;7702;51.046;5.184;2022-09-01T07:29:23;3.23;;;2.80;;
15202;SDS011;7702;51.046;5.184;2022-09-01T07:31:50;3.27;;;2.97;;
15202;SDS011;7702;51.046;5.184;2022-09-01T07:34:19;2.93;;;2.67;;
15202;SDS011;7702;51.046;5.184;2022-09-01T07:36:45;4.40;;;2.50;;
15202;SDS011;7702;51.046;5.184;2022-09-01T07:39:13;3.83;;;2.40;;
15202;SDS011;7702;51.046;5.184;2022-09-01T07:41:39;2.53;;;2.03;;
15202;SDS011;7702;51.046;5.184;2022-09-01T07:44:06;6.53;;;2.30;;
15202;SDS011;7702;51.046;5.184;2022-09-01T07:46:34;3.53;;;2.83;;
15202;SDS011;7702;51.046;5.184;2022-09-01T07:49:00;2.80;;;2.60;;
15202;SDS011;7702;51.046;5.184;2022-09-01T07:51:27;3.20;;;2.50;;
15202;SDS011;7702;51.046;5.184;2022-09-01T07:53:56;4.63;;;2.50;;
15202;SDS011;7702;51.046;5.184;2022-09-01T07:56:23;4.47;;;2.43;;
15202;SDS011;7702;51.046;5.184;2022-09-01T07:58:49;3.10;;;2.30;;
15202;SDS011;7702;51.046;5.184;2022-09-01T08:01:17;4.13;;;2.33;;
15202;SDS011;7702;51.046;5.184;2022-09-01T08:03:46;4.20;;;2.33;;
15202;SDS011;7702;51.046;5.184;2022-09-01T08:06:17;3.50;;;2.13;;
15202;SDS011;7702;51.046;5.184;2022-09-01T08:08:45;4.27;;;2.20;;
15202;SDS011;7702;51.046;5.184;2022-09-01T08:11:20;3.60;;;2.53;;
15202;SDS011;7702;51.046;5.184;2022-09-01T08:13:49;2.50;;;2.30;;
15202;SDS011;7702;51.046;5.184;2022-09-01T08:16:15;4.30;;;2.40;;
15202;SDS011;7702;51.046;5.184;2022-09-01T08:18:41;3.47;;;2.20;;
15202;SDS011;7702;51.046;5.184;2022-09-01T08:21:09;3.00;;;2.70;;
15202;SDS011;7702;51.046;5.184;2022-09-01T08:23:36;3.27;;;2.57;;
15202;SDS011;7702;51.046;5.184;2022-09-01T08:26:06;2.60;;;2.40;;
15202;SDS011;7702;51.046;5.184;2022-09-01T08:28:33;2.93;;;2.60;;
15202;SDS011;7702;51.046;5.184;2022-09-01T08:30:59;2.43;;;2.00;;
15202;SDS011;7702;51.046;5.184;2022-09-01T08:33:29;3.03;;;2.30;;
15202;SDS011;7702;51.046;5.184;2022-09-01T08:36:00;2.67;;;2.33;;
15202;SDS011;7702;51.046;5.184;2022-09-01T08:38:26;5.23;;;2.10;;
15202;SDS011;7702;51.046;5.184;2022-09-01T08:40:53;3.57;;;1.90;;
15202;SDS011;7702;51.046;5.184;2022-09-01T08:43:24;3.23;;;2.60;;
15202;SDS011;7702;51.046;5.184;2022-09-01T08:46:12;5.10;;;2.27;;
15202;SDS011;7702;51.046;5.184;2022-09-01T08:48:45;3.87;;;2.13;;
15202;SDS011;7702;51.046;5.184;2022-09-01T08:56:55;4.00;;;2.43;;
15202;SDS011;7702;51.046;5.184;2022-09-01T08:59:24;3.53;;;2.40;;
15202;SDS011;7702;51.046;5.184;2022-09-01T09:04:46;3.10;;;2.10;;
15202;SDS011;7702;51.046;5.184;2022-09-01T09:07:24;2.73;;;2.30;;
15202;SDS011;7702;51.046;5.184;2022-09-01T09:09:54;3.23;;;2.00;;
15202;SDS011;7702;51.046;5.184;2022-09-01T09:20:56;2.07;;;1.97;;
15202;SDS011;7702;51.046;5.184;2022-09-01T09:23:28;3.27;;;2.20;;
15202;SDS011;7702;51.046;5.184;2022-09-01T09:25:59;2.10;;;2.00;;
15202;SDS011;7702;51.046;5.184;2022-09-01T09:28:25;2.77;;;1.90;;
15202;SDS011;7702;51.046;5.184;2022-09-01T09:30:51;1.90;;;1.80;;
15202;SDS011;7702;51.046;5.184;2022-09-01T09:33:49;2.60;;;1.80;;
15202;SDS011;7702;51.046;5.184;2022-09-01T09:36:18;2.90;;;2.00;;
15202;SDS011;7702;51.046;5.184;2022-09-01T09:38:51;2.30;;;2.07;;
15202;SDS011;7702;51.046;5.184;2022-09-01T09:41:30;1.87;;;1.60;;
15202;SDS011;7702;51.046;5.184;2022-09-01T09:49:14;3.57;;;1.90;;
15202;SDS011;7702;51.046;5.184;2022-09-01T09:52:33;1.80;;;1.70;;
15202;SDS011;7702;51.046;5.184;2022-09-01T09:54:35;3.87;;;1.63;;
15202;SDS011;7702;51.046;5.184;2022-09-01T09:57:15;2.23;;;1.80;;
15202;SDS011;7702;51.046;5.184;2022-09-01T09:59:46;2.30;;;2.10;;
15202;SDS011;7702;51.046;5.184;2022-09-01T10:02:24;2.33;;;2.07;;
15202;SDS011;7702;51.046;5.184;2022-09-01T10:04:55;2.10;;;2.00;;
15202;SDS011;7702;51.046;5.184;2022-09-01T10:09:53;2.60;;;1.90;;
15202;SDS011;7702;51.046;5.184;2022-09-01T10:12:20;1.90;;;1.80;;
15202;SDS011;7702;51.046;5.184;2022-09-01T10:14:52;2.13;;;1.90;;
15202;SDS011;7702;51.046;5.184;2022-09-01T10:20:03;4.17;;;1.57;;
15202;SDS011;7702;51.046;5.184;2022-09-01T10:22:30;3.70;;;2.10;;
15202;SDS011;7702;51.046;5.184;2022-09-01T10:24:58;2.00;;;1.77;;
15202;SDS011;7702;51.046;5.184;2022-09-01T10:27:29;1.97;;;1.83;;
15202;SDS011;7702;51.046;5.184;2022-09-01T10:32:45;2.83;;;1.97;;
15202;SDS011;7702;51.046;5.184;2022-09-01T10:35:33;2.37;;;2.23;;
15202;SDS011;7702;51.046;5.184;2022-09-01T10:38:14;2.00;;;1.80;;
15202;SDS011;7702;51.046;5.184;2022-09-01T10:40:44;2.47;;;1.93;;
15202;SDS011;7702;51.046;5.184;2022-09-01T10:45:57;2.63;;;1.67;;
15202;SDS011;7702;51.046;5.184;2022-09-01T10:48:27;2.83;;;1.77;;
15202;SDS011;7702;51.046;5.184;2022-09-01T10:53:38;2.63;;;1.70;;
15202;SDS011;7702;51.046;5.184;2022-09-01T10:56:07;2.17;;;2.07;;
15202;SDS011;7702;51.046;5.184;2022-09-01T11:05:09;2.30;;;1.70;;
15202;SDS011;7702;51.046;5.184;2022-09-01T11:09:44;2.23;;;1.57;;
15202;SDS011;7702;51.046;5.184;2022-09-01T11:15:05;1.87;;;1.40;;
15202;SDS011;7702;51.046;5.184;2022-09-01T11:18:46;1.97;;;1.40;;
15202;SDS011;7702;51.046;5.184;2022-09-01T11:21:05;1.87;;;1.40;;
15202;SDS011;7702;51.046;5.184;2022-09-01T11:36:14;4.53;;;1.60;;
15202;SDS011;7702;51.046;5.184;2022-09-01T11:39:05;2.37;;;1.40;;
15202;SDS011;7702;51.046;5.184;2022-09-01T11:44:36;1.43;;;1.33;;
15202;SDS011;7702;51.046;5.184;2022-09-01T11:47:26;1.73;;;1.43;;
15202;SDS011;7702;51.046;5.184;2022-09-01T11:50:02;1.40;;;1.30;;
15202;SDS011;7702;51.046;5.184;2022-09-01T11:52:33;2.97;;;1.33;;
15202;SDS011;7702;51.046;5.184;2022-09-01T11:55:02;1.43;;;1.37;;
15202;SDS011;7702;51.046;5.184;2022-09-01T11:57:33;2.23;;;1.20;;
15202;SDS011;7702;51.046;5.184;2022-09-01T12:00:03;1.50;;;1.40;;
15202;SDS011;7702;51.046;5.184;2022-09-01T12:02:34;1.80;;;1.20;;
15202;SDS011;7702;51.046;5.184;2022-09-01T12:05:22;1.50;;;1.40;;
15202;SDS011;7702;51.046;5.184;2022-09-01T12:07:56;2.40;;;1.30;;
15202;SDS011;7702;51.046;5.184;2022-09-01T12:10:27;1.83;;;1.20;;
15202;SDS011;7702;51.046;5.184;2022-09-01T12:15:32;2.13;;;1.40;;
15202;SDS011;7702;51.046;5.184;2022-09-01T12:18:23;3.23;;;1.70;;
15202;SDS011;7702;51.046;5.184;2022-09-01T12:20:52;1.30;;;1.20;;
15202;SDS011;7702;51.046;5.184;2022-09-01T12:25:47;1.47;;;1.37;;
15202;SDS011;7702;51.046;5.184;2022-09-01T12:28:13;2.87;;;1.20;;
15202;SDS011;7702;51.046;5.184;2022-09-01T12:30:40;3.83;;;1.47;;
15202;SDS011;7702;51.046;5.184;2022-09-01T12:33:10;1.90;;;1.20;;
15202;SDS011;7702;51.046;5.184;2022-09-01T12:35:38;1.00;;;1.00;;
15202;SDS011;7702;51.046;5.184;2022-09-01T12:40:47;2.80;;;1.30;;
15202;SDS011;7702;51.046;5.184;2022-09-01T12:46:01;2.00;;;1.07;;
15202;SDS011;7702;51.046;5.184;2022-09-01T12:48:36;1.37;;;1.27;;
15202;SDS011;7702;51.046;5.184;2022-09-01T12:53:39;3.00;;;1.40;;
15202;SDS011;7702;51.046;5.184;2022-09-01T12:56:14;2.20;;;1.13;;
15202;SDS011;7702;51.046;5.184;2022-09-01T12:58:45;1.03;;;1.03;;
15202;SDS011;7702;51.046;5.184;2022-09-01T13:01:23;1.53;;;1.33;;
15202;SDS011;7702;51.046;5.184;2022-09-01T13:04:10;1.27;;;1.00;;
15202;SDS011;7702;51.046;5.184;2022-09-01T13:06:36;6.90;;;1.47;;
15202;SDS011;7702;51.046;5.184;2022-09-01T13:09:02;4.60;;;1.40;;
15202;SDS011;7702;51.046;5.184;2022-09-01T13:11:28;1.43;;;1.33;;
15202;SDS011;7702;51.046;5.184;2022-09-01T13:13:53;2.07;;;1.27;;
15202;SDS011;7702;51.046;5.184;2022-09-01T13:16:20;2.17;;;1.40;;
15202;SDS011;7702;51.046;5.184;2022-09-01T13:18:45;2.00;;;1.20;;
15202;SDS011;7702;51.046;5.184;2022-09-01T13:21:11;2.10;;;1.30;;
15202;SDS011;7702;51.046;5.184;2022-09-01T13:23:39;1.87;;;1.40;;
15202;SDS011;7702;51.046;5.184;2022-09-01T13:26:05;2.23;;;1.37;;
15202;SDS011;7702;51.046;5.184;2022-09-01T13:28:31;1.43;;;1.27;;
15202;SDS011;7702;51.046;5.184;2022-09-01T13:30:58;3.17;;;1.40;;
15202;SDS011;7702;51.046;5.184;2022-09-01T13:33:29;1.70;;;1.53;;
15202;SDS011;7702;51.046;5.184;2022-09-01T13:35:56;2.30;;;1.40;;
15202;SDS011;7702;51.046;5.184;2022-09-01T13:38:22;1.83;;;1.40;;
15202;SDS011;7702;51.046;5.184;2022-09-01T13:40:48;2.30;;;1.70;;
15202;SDS011;7702;51.046;5.184;2022-09-01T13:43:16;1.30;;;1.17;;
15202;SDS011;7702;51.046;5.184;2022-09-01T13:45:46;1.50;;;1.40;;
15202;SDS011;7702;51.046;5.184;2022-09-01T13:48:13;1.87;;;1.37;;
15202;SDS011;7702;51.046;5.184;2022-09-01T13:50:39;1.53;;;1.43;;
15202;SDS011;7702;51.046;5.184;2022-09-01T13:53:06;1.70;;;1.40;;
15202;SDS011;7702;51.046;5.184;2022-09-01T13:55:33;1.93;;;1.53;;
15202;SDS011;7702;51.046;5.184;2022-09-01T13:58:02;5.33;;;1.60;;
15202;SDS011;7702;51.046;5.184;2022-09-01T14:00:31;1.93;;;1.40;;
15202;SDS011;7702;51.046;5.184;2022-09-01T14:03:00;1.50;;;1.40;;
15202;SDS011;7702;51.046;5.184;2022-09-01T14:05:33;2.97;;;1.40;;
15202;SDS011;7702;51.046;5.184;2022-09-01T14:08:01;1.83;;;1.60;;
15202;SDS011;7702;51.046;5.184;2022-09-01T14:10:28;2.13;;;1.60;;
15202;SDS011;7702;51.046;5.184;2022-09-01T14:12:55;2.50;;;1.30;;
15202;SDS011;7702;51.046;5.184;2022-09-01T14:15:21;1.37;;;1.27;;
15202;SDS011;7702;51.046;5.184;2022-09-01T14:17:49;2.47;;;1.40;;
15202;SDS011;7702;51.046;5.184;2022-09-01T14:20:20;3.77;;;1.40;;
15202;SDS011;7702;51.046;5.184;2022-09-01T14:22:51;1.87;;;1.50;;
15202;SDS011;7702;51.046;5.184;2022-09-01T14:25:17;1.77;;;1.63;;
15202;SDS011;7702;51.046;5.184;2022-09-01T14:27:44;1.77;;;1.33;;
15202;SDS011;7702;51.046;5.184;2022-09-01T14:30:11;1.50;;;1.37;;
15202;SDS011;7702;51.046;5.184;2022-09-01T14:32:40;3.30;;;1.50;;
15202;SDS011;7702;51.046;5.184;2022-09-01T14:35:06;2.00;;;1.50;;
15202;SDS011;7702;51.046;5.184;2022-09-01T14:37:32;1.47;;;1.23;;
15202;SDS011;7702;51.046;5.184;2022-09-01T14:40:00;2.33;;;1.50;;
15202;SDS011;7702;51.046;5.184;2022-09-01T14:42:26;1.57;;;1.30;;
15202;SDS011;7702;51.046;5.184;2022-09-01T14:44:53;1.67;;;1.30;;
15202;SDS011;7702;51.046;5.184;2022-09-01T14:47:19;1.67;;;1.50;;
15202;SDS011;7702;51.046;5.184;2022-09-01T14:49:46;3.53;;;1.87;;
15202;SDS011;7702;51.046;5.184;2022-09-01T14:52:12;1.83;;;1.50;;
15202;SDS011;7702;51.046;5.184;2022-09-01T14:54:39;3.47;;;1.30;;
15202;SDS011;7702;51.046;5.184;2022-09-01T14:57:08;3.47;;;1.57;;
15202;SDS011;7702;51.046;5.184;2022-09-01T14:59:35;1.70;;;1.30;;
15202;SDS011;7702;51.046;5.184;2022-09-01T15:02:01;1.60;;;1.43;;
15202;SDS011;7702;51.046;5.184;2022-09-01T15:04:28;3.83;;;2.07;;
15202;SDS011;7702;51.046;5.184;2022-09-01T15:06:54;2.40;;;1.30;;
15202;SDS011;7702;51.046;5.184;2022-09-01T15:09:20;1.40;;;1.30;;
15202;SDS011;7702;51.046;5.184;2022-09-01T15:11:46;2.60;;;1.60;;
15202;SDS011;7702;51.046;5.184;2022-09-01T15:14:11;2.33;;;1.17;;
15202;SDS011;7702;51.046;5.184;2022-09-01T15:16:38;3.40;;;1.50;;
15202;SDS011;7702;51.046;5.184;2022-09-01T15:19:09;1.67;;;1.30;;
15202;SDS011;7702;51.046;5.184;2022-09-01T15:21:36;1.50;;;1.40;;
15202;SDS011;7702;51.046;5.184;2022-09-01T15:24:03;1.70;;;1.60;;
15202;SDS011;7702;51.046;5.184;2022-09-01T15:26:31;2.13;;;1.33;;
15202;SDS011;7702;51.046;5.184;2022-09-01T15:28:57;3.33;;;1.70;;
15202;SDS011;7702;51.046;5.184;2022-09-01T15:31:24;2.47;;;1.43;;
15202;SDS011;7702;51.046;5.184;2022-09-01T15:33:54;1.43;;;1.33;;
15202;SDS011;7702;51.046;5.184;2022-09-01T15:36:21;1.30;;;1.20;;
15202;SDS011;7702;51.046;5.184;2022-09-01T15:38:47;1.50;;;1.40;;
15202;SDS011;7702;51.046;5.184;2022-09-01T15:41:17;2.10;;;1.53;;
15202;SDS011;7702;51.046;5.184;2022-09-01T15:43:44;1.57;;;1.40;;
15202;SDS011;7702;51.046;5.184;2022-09-01T15:46:10;1.60;;;1.50;;
15202;SDS011;7702;51.046;5.184;2022-09-01T15:48:38;3.90;;;1.43;;
15202;SDS011;7702;51.046;5.184;2022-09-01T15:53:52;1.63;;;1.40;;
15202;SDS011;7702;51.046;5.184;2022-09-01T15:56:20;1.20;;;1.20;;
15202;SDS011;7702;51.046;5.184;2022-09-01T15:58:46;2.87;;;1.50;;
15202;SDS011;7702;51.046;5.184;2022-09-01T16:01:13;2.60;;;1.50;;
15202;SDS011;7702;51.046;5.184;2022-09-01T16:03:40;1.70;;;1.60;;
15202;SDS011;7702;51.046;5.184;2022-09-01T16:06:06;2.00;;;1.40;;
15202;SDS011;7702;51.046;5.184;2022-09-01T16:08:32;2.87;;;1.80;;
15202;SDS011;7702;51.046;5.184;2022-09-01T16:10:59;1.50;;;1.37;;
15202;SDS011;7702;51.046;5.184;2022-09-01T16:13:26;2.40;;;1.53;;
15202;SDS011;7702;51.046;5.184;2022-09-01T16:16:01;1.97;;;1.80;;
15202;SDS011;7702;51.046;5.184;2022-09-01T16:21:49;2.33;;;1.63;;
15202;SDS011;7702;51.046;5.184;2022-09-01T16:24:41;2.35;;;1.55;;
15202;SDS011;7702;51.046;5.184;2022-09-01T16:27:11;1.80;;;1.70;;
15202;SDS011;7702;51.046;5.184;2022-09-01T16:32:19;1.70;;;1.60;;
15202;SDS011;7702;51.046;5.184;2022-09-01T16:34:47;2.43;;;2.20;;
15202;SDS011;7702;51.046;5.184;2022-09-01T16:43:19;2.00;;;1.47;;
15202;SDS011;7702;51.046;5.184;2022-09-01T16:48:56;2.77;;;1.73;;